createdAt,value
2018-07-19T00:01:16.045Z,66.4
2018-07-19T00:02:15.851Z,66.3
2018-07-19T00:03:15.886Z,66.43
2018-07-19T00:04:15.893Z,66.82
2018-07-19T00:05:15.919Z,66.4
2018-07-19T00:06:15.853Z,66.4
2018-07-19T00:07:15.885Z,66.43
2018-07-19T00:08:15.920Z,66.82
2018-07-19T00:09:15.954Z,67.02
2018-07-19T00:10:15.899Z,66.88
2018-07-19T00:11:15.964Z,66.92
2018-07-19T00:12:15.897Z,66.92
2018-07-19T00:13:15.931Z,66.72
2018-07-19T00:14:15.913Z,66.53
2018-07-19T00:15:16.014Z,66.63
2018-07-19T00:16:15.940Z,66.72
2018-07-19T00:17:15.953Z,66.72
2018-07-19T00:18:15.942Z,66.72
2018-07-19T00:19:15.888Z,66.92
2018-07-19T00:20:15.922Z,66.92
2018-07-19T00:21:15.954Z,66.72
2018-07-19T00:22:15.932Z,66.72
2018-07-19T00:23:15.998Z,66.69
2018-07-19T00:24:15.959Z,66.78
2018-07-19T00:25:15.902Z,66.92
2018-07-19T00:26:15.960Z,67.02
2018-07-19T00:27:15.917Z,66.82
2018-07-19T00:28:15.919Z,66.92
2018-07-19T00:29:15.980Z,66.82
2018-07-19T00:30:15.932Z,66.78
2018-07-19T00:31:15.989Z,66.43
2018-07-19T00:32:16.028Z,66.24
2018-07-19T00:33:15.979Z,66.63
2018-07-19T00:34:15.921Z,66.53
2018-07-19T00:35:15.973Z,66.2
2018-07-19T00:36:15.925Z,66.34
2018-07-19T00:37:16.008Z,66.3
2018-07-19T00:38:15.934Z,66.14
2018-07-19T00:39:15.942Z,66.34
2018-07-19T00:40:15.928Z,66.3
2018-07-19T00:41:15.982Z,66.43
2018-07-19T00:42:16.022Z,66.4
2018-07-19T00:43:15.946Z,66.4
2018-07-19T00:44:15.992Z,66.5
2018-07-19T00:45:15.986Z,66.34
2018-07-19T00:46:15.956Z,66.34
2018-07-19T00:47:16.025Z,66.53
2018-07-19T00:48:16.314Z,66.34
2018-07-19T00:49:15.924Z,66.4
2018-07-19T00:50:16.039Z,66.3
2018-07-19T00:51:16.016Z,66.3
2018-07-19T00:52:16.058Z,66.14
2018-07-19T00:53:15.989Z,66.11
2018-07-19T00:54:15.963Z,66.3
2018-07-19T00:55:16.040Z,66.63
2018-07-19T00:56:16.045Z,66.43
2018-07-19T00:57:15.983Z,66.4
2018-07-19T00:58:15.959Z,66.63
2018-07-19T00:59:16.014Z,66.63
2018-07-19T01:00:16.020Z,66.4
2018-07-19T01:01:15.979Z,66.34
2018-07-19T01:02:16.020Z,66.2
2018-07-19T01:03:15.990Z,66.14
2018-07-19T01:04:16.024Z,66.5
2018-07-19T01:05:16.004Z,66.34
2018-07-19T01:06:16.035Z,66.24
2018-07-19T01:07:16.050Z,66.3
2018-07-19T01:08:15.999Z,66.11
2018-07-19T01:09:16.005Z,66.3
2018-07-19T01:10:15.998Z,66.3
2018-07-19T01:11:16.004Z,66.5
2018-07-19T01:12:16.105Z,66.24
2018-07-19T01:13:16.039Z,66.5
2018-07-19T01:14:16.098Z,66.2
2018-07-19T01:15:16.037Z,66.2
2018-07-19T01:16:16.019Z,66.3
2018-07-19T01:17:16.031Z,66.2
2018-07-19T01:18:16.013Z,66.05
2018-07-19T01:19:16.022Z,66.4
2018-07-19T01:20:16.056Z,66.4
2018-07-19T01:21:16.033Z,66.4
2018-07-19T01:22:16.060Z,66.2
2018-07-19T01:23:16.099Z,66.02
2018-07-19T01:24:16.060Z,66.5
2018-07-19T01:25:16.034Z,66.6
2018-07-19T01:26:16.040Z,66.69
2018-07-19T01:27:16.027Z,66.6
2018-07-19T01:28:16.085Z,66.69
2018-07-19T01:29:16.020Z,66.78
2018-07-19T01:30:16.050Z,66.5
2018-07-19T01:31:16.026Z,66.78
2018-07-19T01:32:16.099Z,66.78
2018-07-19T01:33:16.066Z,66.88
2018-07-19T01:34:16.045Z,66.69
2018-07-19T01:35:16.104Z,66.6
2018-07-19T01:36:16.080Z,66.69
2018-07-19T01:37:16.094Z,66.78
2018-07-19T01:38:16.196Z,66.5
2018-07-19T01:39:16.127Z,66.6
2018-07-19T01:40:16.088Z,66.78
2018-07-19T01:41:16.056Z,66.69
2018-07-19T01:42:16.064Z,66.6
2018-07-19T01:43:16.105Z,66.6
2018-07-19T01:44:16.036Z,66.6
2018-07-19T01:45:16.158Z,66.69
2018-07-19T01:46:16.062Z,66.69
2018-07-19T01:47:16.068Z,66.6
2018-07-19T01:48:16.081Z,66.69
2018-07-19T01:49:16.106Z,66.78
2018-07-19T01:50:16.094Z,66.69
2018-07-19T01:51:16.119Z,66.78
2018-07-19T01:52:16.076Z,66.88
2018-07-19T01:53:16.122Z,66.69
2018-07-19T01:54:16.116Z,66.88
2018-07-19T01:55:16.081Z,66.78
2018-07-19T01:56:16.084Z,66.78
2018-07-19T01:57:16.111Z,66.88
2018-07-19T01:58:16.080Z,66.78
2018-07-19T01:59:16.073Z,66.78
2018-07-19T02:00:16.134Z,66.98
2018-07-19T02:01:16.109Z,66.6
2018-07-19T02:02:16.105Z,66.69
2018-07-19T02:03:16.101Z,66.78
2018-07-19T02:04:16.112Z,66.69
2018-07-19T02:05:16.176Z,66.69
2018-07-19T02:06:16.090Z,66.69
2018-07-19T02:07:16.147Z,66.6
2018-07-19T02:08:16.105Z,66.88
2018-07-19T02:09:16.089Z,66.69
2018-07-19T02:10:16.120Z,66.88
2018-07-19T02:11:16.126Z,66.69
2018-07-19T02:12:16.103Z,66.69
2018-07-19T02:13:16.136Z,66.88
2018-07-19T02:14:16.169Z,66.78
2018-07-19T02:19:33.412Z,66.78
2018-07-19T02:19:47.406Z,66.69
2018-07-19T02:20:47.394Z,66.88
2018-07-19T02:21:47.424Z,66.98
2018-07-19T02:22:47.380Z,66.6
2018-07-19T02:23:47.432Z,66.88
2018-07-19T02:24:47.479Z,66.88
2018-07-19T02:25:47.398Z,66.69
2018-07-19T02:26:47.409Z,66.5
2018-07-19T02:27:47.383Z,66.6
2018-07-19T02:28:47.440Z,66.6
2018-07-19T02:29:47.441Z,66.88
2018-07-19T02:30:47.405Z,66.88
2018-07-19T02:31:47.402Z,66.88
2018-07-19T02:32:47.397Z,67.08
2018-07-19T02:33:47.395Z,66.78
2018-07-19T02:34:47.430Z,66.78
2018-07-19T02:35:47.412Z,66.78
2018-07-19T02:36:47.417Z,67.08
2018-07-19T02:37:47.479Z,67.08
2018-07-19T02:38:47.411Z,66.88
2018-07-19T02:39:47.436Z,66.78
2018-07-19T02:40:47.427Z,67.37
2018-07-19T02:41:47.505Z,67.37
2018-07-19T02:42:47.487Z,66.88
2018-07-19T02:43:47.476Z,67.08
2018-07-19T02:44:47.422Z,67.08
2018-07-19T02:45:47.426Z,67.08
2018-07-19T02:46:47.455Z,67.08
2018-07-19T02:47:47.472Z,66.88
2018-07-19T02:48:47.761Z,67.08
2018-07-19T02:49:47.416Z,66.98
2018-07-19T02:50:47.480Z,67.08
2018-07-19T02:51:47.473Z,67.08
2018-07-19T02:52:47.416Z,67.08
2018-07-19T02:53:47.530Z,67.08
2018-07-19T02:54:47.496Z,67.08
2018-07-19T02:55:47.486Z,66.88
2018-07-19T02:56:47.473Z,66.69
2018-07-19T02:57:47.434Z,66.78
2018-07-19T02:58:47.429Z,66.88
2018-07-19T02:59:47.463Z,66.88
2018-07-19T03:00:47.532Z,66.69
2018-07-19T03:01:47.448Z,66.98
2018-07-19T03:02:47.481Z,66.88
2018-07-19T03:03:47.464Z,67.08
2018-07-19T03:04:47.475Z,66.88
2018-07-19T03:05:47.466Z,66.88
2018-07-19T03:06:47.483Z,66.88
2018-07-19T03:07:47.657Z,66.78
2018-07-19T03:08:47.570Z,66.78
2018-07-19T03:09:47.536Z,66.78
2018-07-19T03:10:47.534Z,66.78
2018-07-19T03:11:47.521Z,66.88
2018-07-19T03:12:47.508Z,67.08
2018-07-19T03:13:47.477Z,67.37
2018-07-19T03:14:47.487Z,67.08
2018-07-19T03:15:47.489Z,67.18
2018-07-19T03:16:47.533Z,67.37
2018-07-19T03:17:47.509Z,66.98
2018-07-19T03:18:47.459Z,67.08
2018-07-19T03:19:47.495Z,67.27
2018-07-19T03:20:47.759Z,67.37
2018-07-19T03:21:47.520Z,67.37
2018-07-19T03:22:47.525Z,66.98
2018-07-19T03:23:47.570Z,67.37
2018-07-19T03:24:47.507Z,67.27
2018-07-19T03:25:47.505Z,67.18
2018-07-19T03:26:47.565Z,67.18
2018-07-19T03:27:47.503Z,67.37
2018-07-19T03:28:47.482Z,67.08
2018-07-19T03:29:47.554Z,66.98
2018-07-19T03:30:47.498Z,67.08
2018-07-19T03:31:47.534Z,67.18
2018-07-19T03:32:47.581Z,67.18
2018-07-19T03:33:47.584Z,67.37
2018-07-19T03:34:47.490Z,67.18
2018-07-19T03:35:47.556Z,67.46
2018-07-19T03:36:47.531Z,66.85
2018-07-19T03:37:47.517Z,66.78
2018-07-19T03:38:47.547Z,66.78
2018-07-19T03:39:47.559Z,67.08
2018-07-19T03:40:47.512Z,67.37
2018-07-19T03:41:47.539Z,67.18
2018-07-19T03:42:47.618Z,67.37
2018-07-19T03:43:57.528Z,67.27
2018-07-19T03:44:47.538Z,67.14
2018-07-19T03:45:47.694Z,67.14
2018-07-19T03:46:47.542Z,67.18
2018-07-19T03:47:47.607Z,67.27
2018-07-19T03:48:47.563Z,67.08
2018-07-19T03:49:47.565Z,67.27
2018-07-19T03:50:47.568Z,67.08
2018-07-19T03:51:47.631Z,66.78
2018-07-19T03:52:47.587Z,66.69
2018-07-19T03:53:47.620Z,67.14
2018-07-19T03:54:47.596Z,66.88
2018-07-19T03:55:47.528Z,66.78
2018-07-19T03:56:47.586Z,67.37
2018-07-19T03:57:47.595Z,67.27
2018-07-19T03:58:47.603Z,66.69
2018-07-19T03:59:47.560Z,66.78
2018-07-19T04:00:47.587Z,66.98
2018-07-19T04:01:47.652Z,66.78
2018-07-19T04:02:47.601Z,66.95
2018-07-19T04:03:47.580Z,66.69
2018-07-19T04:04:47.612Z,67.37
2018-07-19T04:05:47.560Z,67.18
2018-07-19T04:06:47.601Z,66.98
2018-07-19T04:07:47.597Z,67.27
2018-07-19T04:08:47.605Z,66.85
2018-07-19T04:09:47.625Z,67.33
2018-07-19T04:10:47.622Z,66.78
2018-07-19T04:11:47.598Z,67.08
2018-07-19T04:12:47.565Z,67.08
2018-07-19T04:13:47.636Z,66.95
2018-07-19T04:14:47.620Z,66.69
2018-07-19T04:15:47.594Z,66.75
2018-07-19T04:16:47.609Z,67.18
2018-07-19T04:17:47.569Z,67.37
2018-07-19T04:18:47.619Z,67.18
2018-07-19T04:19:47.599Z,66.75
2018-07-19T04:20:47.610Z,67.33
2018-07-19T04:21:47.649Z,66.75
2018-07-19T04:22:47.634Z,66.78
2018-07-19T04:23:47.643Z,66.78
2018-07-19T04:24:47.636Z,67.08
2018-07-19T04:25:47.615Z,66.78
2018-07-19T04:26:47.652Z,66.69
2018-07-19T04:27:47.627Z,66.69
2018-07-19T04:28:47.681Z,67.14
2018-07-19T04:29:47.646Z,66.78
2018-07-19T04:30:47.669Z,66.78
2018-07-19T04:31:47.673Z,67.08
2018-07-19T04:32:47.649Z,66.88
2018-07-19T04:33:47.641Z,66.75
2018-07-19T04:34:47.650Z,66.88
2018-07-19T04:35:47.632Z,66.75
2018-07-19T04:36:47.635Z,67.33
2018-07-19T04:37:47.623Z,67.37
2018-07-19T04:38:47.697Z,66.69
2018-07-19T04:39:47.683Z,67.14
2018-07-19T04:40:47.660Z,67.18
2018-07-19T04:41:47.626Z,67.37
2018-07-19T04:42:47.730Z,67.46
2018-07-19T04:43:47.655Z,67.08
2018-07-19T04:44:47.640Z,66.69
2018-07-19T04:45:47.671Z,66.78
2018-07-19T04:46:48.445Z,67.37
2018-07-19T04:47:47.662Z,67.37
2018-07-19T04:48:47.712Z,67.08
2018-07-19T04:49:47.693Z,67.37
2018-07-19T04:50:47.680Z,67.18
2018-07-19T04:51:47.692Z,67.37
2018-07-19T04:52:47.694Z,67.08
2018-07-19T04:53:47.649Z,67.18
2018-07-19T04:54:47.730Z,67.18
2018-07-19T04:55:47.711Z,67.14
2018-07-19T04:56:47.742Z,67.18
2018-07-19T04:57:47.683Z,67.18
2018-07-19T04:58:47.656Z,67.05
2018-07-19T04:59:47.777Z,67.08
2018-07-19T05:00:47.670Z,67.08
2018-07-19T05:01:47.736Z,66.85
2018-07-19T05:02:47.713Z,66.95
2018-07-19T05:03:47.689Z,67.18
2018-07-19T05:04:47.721Z,67.18
2018-07-19T05:05:47.724Z,67.27
2018-07-19T05:06:47.734Z,66.78
2018-07-19T05:07:47.717Z,67.05
2018-07-19T05:08:47.722Z,67.08
2018-07-19T05:09:47.719Z,67.08
2018-07-19T05:10:47.708Z,67.08
2018-07-19T05:11:47.689Z,67.18
2018-07-19T05:12:47.733Z,67.37
2018-07-19T05:13:47.701Z,67.05
2018-07-19T05:14:47.711Z,67.08
2018-07-19T05:15:47.660Z,67.08
2018-07-19T05:16:47.755Z,67.18
2018-07-19T05:17:47.697Z,67.27
2018-07-19T05:18:47.687Z,67.08
2018-07-19T05:19:47.696Z,67.46
2018-07-19T05:20:47.690Z,66.95
2018-07-19T05:21:47.745Z,66.98
2018-07-19T05:22:47.749Z,66.98
2018-07-19T05:23:47.789Z,66.88
2018-07-19T05:24:47.797Z,67.08
2018-07-19T05:25:48.145Z,66.88
2018-07-19T05:26:47.804Z,67.18
2018-07-19T05:27:47.750Z,67.18
2018-07-19T05:28:47.724Z,67.46
2018-07-19T05:29:47.751Z,67.05
2018-07-19T05:30:47.729Z,67.37
2018-07-19T05:31:47.749Z,67.14
2018-07-19T05:32:47.780Z,67.08
2018-07-19T05:33:47.812Z,67.18
2018-07-19T05:34:47.759Z,67.08
2018-07-19T05:35:47.747Z,67.37
2018-07-19T05:36:47.757Z,67.27
2018-07-19T05:37:47.778Z,67.56
2018-07-19T05:38:47.713Z,66.78
2018-07-19T05:39:47.792Z,67.43
2018-07-19T05:40:47.771Z,67.56
2018-07-19T05:41:47.751Z,67.46
2018-07-19T05:42:47.757Z,67.63
2018-07-19T05:43:47.771Z,67.56
2018-07-19T05:44:47.799Z,67.56
2018-07-19T05:45:47.774Z,67.56
2018-07-19T05:46:47.812Z,67.46
2018-07-19T05:47:47.775Z,67.18
2018-07-19T05:48:47.800Z,67.56
2018-07-19T05:49:56.876Z,67.27
2018-07-19T05:50:47.794Z,67.18
2018-07-19T05:51:47.761Z,67.46
2018-07-19T05:52:47.775Z,66.98
2018-07-19T05:53:47.761Z,67.37
2018-07-19T05:54:47.782Z,67.46
2018-07-19T05:55:47.849Z,67.56
2018-07-19T05:56:47.805Z,67.66
2018-07-19T05:57:47.763Z,67.56
2018-07-19T05:58:47.823Z,67.46
2018-07-19T05:59:47.793Z,67.56
2018-07-19T06:00:47.809Z,67.56
2018-07-19T06:01:47.806Z,67.66
2018-07-19T06:02:47.797Z,67.72
2018-07-19T06:03:47.819Z,67.76
2018-07-19T06:04:47.826Z,67.76
2018-07-19T06:05:47.878Z,67.76
2018-07-19T06:06:47.818Z,67.46
2018-07-19T06:07:47.836Z,67.66
2018-07-19T06:08:47.843Z,67.76
2018-07-19T06:09:47.894Z,67.46
2018-07-19T06:10:47.810Z,67.66
2018-07-19T06:11:47.849Z,67.66
2018-07-19T06:12:47.833Z,67.76
2018-07-19T06:13:47.877Z,67.66
2018-07-19T06:14:47.855Z,67.56
2018-07-19T06:15:47.874Z,67.37
2018-07-19T06:16:47.848Z,67.37
2018-07-19T06:17:47.831Z,67.56
2018-07-19T06:20:07.407Z,67.56
2018-07-19T06:21:07.318Z,67.27
2018-07-19T06:22:07.382Z,67.08
2018-07-19T06:23:07.406Z,67.08
2018-07-19T06:24:07.297Z,67.08
2018-07-19T06:25:07.255Z,67.46
2018-07-19T06:26:07.626Z,67.37
2018-07-19T06:27:07.297Z,67.46
2018-07-19T06:28:07.353Z,67.66
2018-07-19T06:29:07.346Z,67.37
2018-07-19T06:30:07.289Z,67.08
2018-07-19T06:31:07.321Z,67.37
2018-07-19T06:32:07.299Z,67.18
2018-07-19T06:33:07.393Z,67.56
2018-07-19T06:34:07.389Z,66.78
2018-07-19T06:35:07.307Z,66.4
2018-07-19T06:36:07.329Z,66.98
2018-07-19T06:37:07.362Z,67.18
2018-07-19T06:38:07.353Z,66.98
2018-07-19T06:39:07.373Z,67.18
2018-07-19T06:40:07.333Z,67.56
2018-07-19T06:41:07.426Z,67.66
2018-07-19T06:42:07.317Z,67.76
2018-07-19T06:43:07.836Z,67.66
2018-07-19T06:44:07.353Z,67.66
2018-07-19T06:45:07.359Z,67.43
2018-07-19T06:46:07.342Z,67.18
2018-07-19T06:47:07.338Z,67.63
2018-07-19T06:48:07.359Z,68.15
2018-07-19T06:49:07.326Z,67.46
2018-07-19T06:50:07.731Z,67.85
2018-07-19T06:51:07.377Z,67.08
2018-07-19T06:52:07.301Z,67.08
2018-07-19T06:53:07.320Z,66.69
2018-07-19T06:54:07.363Z,66.5
2018-07-19T06:55:07.350Z,66.4
2018-07-19T06:56:07.330Z,66.2
2018-07-19T06:57:07.343Z,66.2
2018-07-19T06:58:07.369Z,66.3
2018-07-19T06:59:07.349Z,66.11
2018-07-19T07:00:07.434Z,66.2
2018-07-19T07:01:07.365Z,66.27
2018-07-19T07:02:07.424Z,66.2
2018-07-19T07:03:07.329Z,66.27
2018-07-19T07:04:07.390Z,66.3
2018-07-19T07:05:08.115Z,66.5
2018-07-19T07:06:07.352Z,66.02
2018-07-19T07:07:07.381Z,66.02
2018-07-19T07:08:07.365Z,66.11
2018-07-19T07:09:07.445Z,65.53
2018-07-19T07:10:07.402Z,65.82
2018-07-19T07:11:07.400Z,66.08
2018-07-19T07:12:07.385Z,66.02
2018-07-19T07:13:07.398Z,65.53
2018-07-19T07:14:07.355Z,65.82
2018-07-19T07:15:07.476Z,65.53
2018-07-19T07:16:07.391Z,65.62
2018-07-19T07:17:07.349Z,65.62
2018-07-19T07:18:07.438Z,65.24
2018-07-19T07:19:07.462Z,65.62
2018-07-19T07:20:07.384Z,65.53
2018-07-19T07:21:07.450Z,65.5
2018-07-19T07:22:07.469Z,65.62
2018-07-19T07:23:07.460Z,65.53
2018-07-19T07:24:07.418Z,65.53
2018-07-19T07:25:07.499Z,65.62
2018-07-19T07:26:07.425Z,65.53
2018-07-19T07:27:07.434Z,65.53
2018-07-19T07:28:07.422Z,65.59
2018-07-19T07:29:07.454Z,65.69
2018-07-19T07:30:07.458Z,65.72
2018-07-19T07:31:07.404Z,65.53
2018-07-19T07:32:07.425Z,65.34
2018-07-19T07:33:07.404Z,65.69
2018-07-19T07:34:07.506Z,65.53
2018-07-19T07:35:07.411Z,65.34
2018-07-19T07:36:07.469Z,65.5
2018-07-19T07:37:07.451Z,65.59
2018-07-19T07:38:07.433Z,65.72
2018-07-19T07:39:07.495Z,65.53
2018-07-19T07:40:07.421Z,65.72
2018-07-19T07:41:07.462Z,65.53
2018-07-19T07:42:07.424Z,65.5
2018-07-19T07:43:07.416Z,65.53
2018-07-19T07:44:07.518Z,65.62
2018-07-19T07:45:07.521Z,65.43
2018-07-19T07:46:07.454Z,65.62
2018-07-19T07:47:07.477Z,65.5
2018-07-19T07:48:07.948Z,65.62
2018-07-19T07:49:07.507Z,65.34
2018-07-19T07:50:07.503Z,65.34
2018-07-19T07:51:07.505Z,65.34
2018-07-19T07:52:07.438Z,65.62
2018-07-19T07:53:07.469Z,65.5
2018-07-19T07:54:07.497Z,65.2
2018-07-19T07:55:07.462Z,65.34
2018-07-19T07:56:07.491Z,65.62
2018-07-19T07:57:12.884Z,65.53
2018-07-19T07:58:07.460Z,65.62
2018-07-19T07:59:07.467Z,65.43
2018-07-19T08:00:07.479Z,65.53
2018-07-19T08:01:07.476Z,65.62
2018-07-19T08:02:07.460Z,65.62
2018-07-19T08:03:07.468Z,65.11
2018-07-19T08:04:07.526Z,65.05
2018-07-19T08:05:07.498Z,65.14
2018-07-19T08:06:07.479Z,65.11
2018-07-19T08:15:45.718Z,64.95
2018-07-19T08:15:57.439Z,63.98
2018-07-19T08:16:57.355Z,64.72
2018-07-19T08:17:57.302Z,64.37
2018-07-19T08:18:57.301Z,64.53
2018-07-19T08:19:57.339Z,64.82
2018-07-19T08:20:57.367Z,64.56
2018-07-19T08:25:26.245Z,64.17
2018-07-19T08:26:26.300Z,64.34
2018-07-19T08:27:26.232Z,64.17
2018-07-19T08:28:26.237Z,63.69
2018-07-19T08:29:26.323Z,63.69
2018-07-19T08:30:26.271Z,63.37
2018-07-19T08:31:26.594Z,63.66
2018-07-19T08:32:26.984Z,63.85
2018-07-19T08:33:26.250Z,63.95
2018-07-19T08:34:26.268Z,64.07
2018-07-19T08:35:27.027Z,64.14
2018-07-19T08:36:26.266Z,63.76
2018-07-19T08:37:26.316Z,63.27
2018-07-19T08:38:26.307Z,63.49
2018-07-19T08:39:26.315Z,63.27
2018-07-19T08:40:26.245Z,63.18
2018-07-19T08:41:26.250Z,63.56
2018-07-19T08:42:26.279Z,63.18
2018-07-19T08:43:26.225Z,63.59
2018-07-19T08:44:26.294Z,63.08
2018-07-19T08:45:26.339Z,63.4
2018-07-19T08:46:26.255Z,62.98
2018-07-19T08:47:26.287Z,63.11
2018-07-19T08:48:26.285Z,63.31
2018-07-19T08:49:26.289Z,63.49
2018-07-19T08:50:26.271Z,63.21
2018-07-19T08:51:26.363Z,63.08
2018-07-19T08:52:26.260Z,63.21
2018-07-19T08:53:26.328Z,63.18
2018-07-19T08:54:26.361Z,62.88
2018-07-19T08:55:26.279Z,62.92
2018-07-19T08:56:26.329Z,63.37
2018-07-19T08:57:26.360Z,63.21
2018-07-19T08:58:26.353Z,63.21
2018-07-19T08:59:26.306Z,62.88
2018-07-19T09:00:26.332Z,63.18
2018-07-19T09:01:26.419Z,63.11
2018-07-19T09:02:26.341Z,63.46
2018-07-19T09:03:26.288Z,62.88
2018-07-19T09:04:26.405Z,63.01
2018-07-19T09:05:26.310Z,63.18
2018-07-19T09:06:26.360Z,62.88
2018-07-19T09:07:26.944Z,62.82
2018-07-19T09:08:26.369Z,62.92
2018-07-19T09:09:26.350Z,62.43
2018-07-19T09:10:26.324Z,63.01
2018-07-19T09:11:26.356Z,63.01
2018-07-19T09:12:26.319Z,62.69
2018-07-19T09:13:26.306Z,63.4
2018-07-19T09:14:26.379Z,62.53
2018-07-19T09:15:26.355Z,62.72
2018-07-19T09:16:26.311Z,62.82
2018-07-19T09:17:26.329Z,62.43
2018-07-19T09:18:26.322Z,63.11
2018-07-19T09:19:26.456Z,63.01
2018-07-19T09:20:26.349Z,63.21
2018-07-19T09:27:53.959Z,62.53
2018-07-19T09:28:05.527Z,62.43
2018-07-19T09:29:05.524Z,62.43
2018-07-19T09:30:05.540Z,62.63
2018-07-19T09:31:05.507Z,62.63
2018-07-19T09:32:05.514Z,62.63
2018-07-19T09:33:05.562Z,62.82
2018-07-19T09:34:05.509Z,62.43
2018-07-19T09:35:05.494Z,62.63
2018-07-19T09:36:05.517Z,62.63
2018-07-19T09:37:05.584Z,62.34
2018-07-19T09:38:05.603Z,62.63
2018-07-19T09:39:05.551Z,62.43
2018-07-19T09:40:05.510Z,63.01
2018-07-19T09:41:05.538Z,63.11
2018-07-19T09:42:05.540Z,63.01
2018-07-19T09:43:05.610Z,62.72
2018-07-19T09:44:05.566Z,62.72
2018-07-19T09:45:05.539Z,62.82
2018-07-19T09:46:05.547Z,62.82
2018-07-19T09:47:05.580Z,62.43
2018-07-19T09:48:05.582Z,62.82
2018-07-19T09:49:05.542Z,62.92
2018-07-19T09:50:05.540Z,62.43
2018-07-19T09:51:05.553Z,62.92
2018-07-19T09:52:05.600Z,63.31
2018-07-19T09:53:05.567Z,63.01
2018-07-19T09:54:05.596Z,63.11
2018-07-19T09:55:05.599Z,63.21
2018-07-19T09:56:05.611Z,62.53
2018-07-19T09:57:05.563Z,62.43
2018-07-19T09:58:05.621Z,62.43
2018-07-19T09:59:05.551Z,62.34
2018-07-19T10:00:06.180Z,62.14
2018-07-19T10:01:06.289Z,62.04
2018-07-19T10:02:05.573Z,62.53
2018-07-19T10:03:05.574Z,62.53
2018-07-19T10:04:05.646Z,61.76
2018-07-19T10:05:05.571Z,62.24
2018-07-19T10:06:05.551Z,61.76
2018-07-19T10:07:05.576Z,61.36
2018-07-19T10:08:05.584Z,61.56
2018-07-19T10:09:05.589Z,61.46
2018-07-19T10:10:05.698Z,62.14
2018-07-19T10:11:05.565Z,62.43
2018-07-19T10:12:05.653Z,62.24
2018-07-19T10:13:05.613Z,61.95
2018-07-19T10:14:05.554Z,62.63
2018-07-19T10:15:05.593Z,62.82
2018-07-19T10:16:21.903Z,62.63
2018-07-19T10:17:21.925Z,62.34
2018-07-19T10:18:21.858Z,62.24
2018-07-19T10:19:21.868Z,62.14
2018-07-19T10:20:22.648Z,62.43
2018-07-19T10:21:21.885Z,62.24
2018-07-19T10:22:21.881Z,62.53
2018-07-19T10:23:21.919Z,61.95
2018-07-19T10:24:21.908Z,62.43
2018-07-19T10:25:21.857Z,62.43
2018-07-19T10:26:21.861Z,62.43
2018-07-19T10:27:21.897Z,62.82
2018-07-19T10:28:21.883Z,63.4
2018-07-19T10:29:21.988Z,62.53
2018-07-19T10:30:21.915Z,62.63
2018-07-19T10:31:21.969Z,62.53
2018-07-19T10:32:22.075Z,62.82
2018-07-19T10:33:21.908Z,62.34
2018-07-19T10:34:21.977Z,62.34
2018-07-19T10:35:21.962Z,62.34
2018-07-19T10:36:21.907Z,62.63
2018-07-19T10:37:21.948Z,62.92
2018-07-19T10:38:21.956Z,62.34
2018-07-19T10:39:22.422Z,62.72
2018-07-19T10:40:21.942Z,62.82
2018-07-19T10:41:21.899Z,63.01
2018-07-19T10:42:21.943Z,62.72
2018-07-19T10:43:21.936Z,62.72
2018-07-19T10:44:21.999Z,62.72
2018-07-19T10:45:21.859Z,62.63
2018-07-19T10:46:21.919Z,63.11
2018-07-19T10:47:21.923Z,62.63
2018-07-19T10:48:21.923Z,62.43
2018-07-19T10:49:21.914Z,62.24
2018-07-19T10:50:21.912Z,62.63
2018-07-19T10:51:21.937Z,62.43
2018-07-19T10:52:21.894Z,61.95
2018-07-19T10:53:21.936Z,61.85
2018-07-19T10:54:22.041Z,62.24
2018-07-19T10:55:21.949Z,62.34
2018-07-19T10:56:22.594Z,62.14
2018-07-19T10:57:22.045Z,62.53
2018-07-19T10:58:21.956Z,62.53
2018-07-19T10:59:21.951Z,62.43
2018-07-19T11:00:21.904Z,62.04
2018-07-19T11:01:21.926Z,62.63
2018-07-19T11:02:21.935Z,61.76
2018-07-19T11:03:21.943Z,61.66
2018-07-19T11:04:21.955Z,62.24
2018-07-19T11:05:21.999Z,61.27
2018-07-19T11:06:22.034Z,62.14
2018-07-19T11:07:21.966Z,62.24
2018-07-19T11:08:21.929Z,61.66
2018-07-19T11:09:22.009Z,62.43
2018-07-19T11:10:21.965Z,62.14
2018-07-19T11:11:21.920Z,61.95
2018-07-19T11:12:21.945Z,62.63
2018-07-19T11:13:21.940Z,62.24
2018-07-19T11:14:22.611Z,62.34
2018-07-19T11:17:29.278Z,62.24
2018-07-19T11:17:40.838Z,62.43
2018-07-19T11:18:40.810Z,62.53
2018-07-19T11:19:40.846Z,61.95
2018-07-19T11:20:40.798Z,62.53
2018-07-19T11:21:40.822Z,62.63
2018-07-19T11:22:40.867Z,62.43
2018-07-19T11:23:40.867Z,62.43
2018-07-19T11:24:40.769Z,61.95
2018-07-19T11:25:40.804Z,61.36
2018-07-19T11:26:40.828Z,60.59
2018-07-19T11:27:40.848Z,61.56
2018-07-19T11:28:41.851Z,62.14
2018-07-19T11:29:40.835Z,61.56
2018-07-19T11:30:40.854Z,62.53
2018-07-19T11:31:40.783Z,61.66
2018-07-19T11:32:40.834Z,62.14
2018-07-19T11:33:40.898Z,61.18
2018-07-19T11:34:40.883Z,61.46
2018-07-19T11:35:40.809Z,62.14
2018-07-19T11:36:40.795Z,62.14
2018-07-19T11:37:40.772Z,61.85
2018-07-19T11:38:40.879Z,61.95
2018-07-19T11:39:40.863Z,62.24
2018-07-19T11:40:40.927Z,61.27
2018-07-19T11:41:41.036Z,62.43
2018-07-19T11:42:40.810Z,62.63
2018-07-19T11:43:40.867Z,62.43
2018-07-19T11:44:40.845Z,62.72
2018-07-19T11:45:40.950Z,62.53
2018-07-19T11:46:57.455Z,62.43
2018-07-19T11:47:57.406Z,63.11
2018-07-19T11:52:26.733Z,62.43
2018-07-19T11:53:26.731Z,62.53
2018-07-19T11:54:26.730Z,62.63
2018-07-19T11:55:26.705Z,62.63
2018-07-19T11:56:26.752Z,62.72
2018-07-19T11:57:26.758Z,61.36
2018-07-19T11:58:26.702Z,62.53
2018-07-19T11:59:26.713Z,62.53
2018-07-19T12:00:26.691Z,62.14
2018-07-19T12:01:26.744Z,61.95
2018-07-19T12:02:26.755Z,62.72
2018-07-19T12:03:26.874Z,62.92
2018-07-19T12:04:26.740Z,62.63
2018-07-19T12:05:26.755Z,62.72
2018-07-19T12:06:26.755Z,62.53
2018-07-19T12:07:26.734Z,62.53
2018-07-19T12:08:26.776Z,62.43
2018-07-19T12:09:26.784Z,62.53
2018-07-19T12:10:26.753Z,62.63
2018-07-19T12:11:26.742Z,61.36
2018-07-19T12:12:27.085Z,60.78
2018-07-19T12:13:26.731Z,61.56
2018-07-19T12:14:26.783Z,62.34
2018-07-19T12:15:26.743Z,62.53
2018-07-19T12:16:26.752Z,62.14
2018-07-19T12:17:26.822Z,62.63
2018-07-19T12:18:26.768Z,62.34
2018-07-19T12:19:26.784Z,61.46
2018-07-19T12:20:26.790Z,62.43
2018-07-19T12:21:26.824Z,62.63
2018-07-19T12:22:27.484Z,62.63
2018-07-19T12:23:26.770Z,62.56
2018-07-19T12:24:26.749Z,62.53
2018-07-19T12:25:26.755Z,62.53
2018-07-19T12:26:27.611Z,62.53
2018-07-19T12:27:27.081Z,62.34
2018-07-19T12:28:31.064Z,62.63
2018-07-19T12:29:27.121Z,61.98
2018-07-19T12:30:26.844Z,62.24
2018-07-19T12:31:26.890Z,62.34
2018-07-19T12:32:27.382Z,62.14
2018-07-19T12:33:26.832Z,62.56
2018-07-19T12:34:27.037Z,62.72
2018-07-19T12:35:26.788Z,62.37
2018-07-19T12:36:27.661Z,61.98
2018-07-19T12:37:26.808Z,62.63
2018-07-19T12:38:26.896Z,62.43
2018-07-19T12:39:26.913Z,62.75
2018-07-19T12:40:26.881Z,62.43
2018-07-19T12:41:26.835Z,62.14
2018-07-19T12:42:26.800Z,62.24
2018-07-19T12:43:26.819Z,62.24
2018-07-19T12:44:26.803Z,62.66
2018-07-19T12:45:26.810Z,61.98
2018-07-19T12:46:26.806Z,62.43
2018-07-19T12:47:26.852Z,62.72
2018-07-19T12:52:44.056Z,62.56
2018-07-19T12:52:56.238Z,62.56
2018-07-19T12:53:55.676Z,62.34
2018-07-19T12:54:55.663Z,62.56
2018-07-19T12:55:55.650Z,62.66
2018-07-19T12:56:55.760Z,62.27
2018-07-19T12:57:55.690Z,62.34
2018-07-19T12:58:55.695Z,62.43
2018-07-19T12:59:55.703Z,62.82
2018-07-19T13:00:56.724Z,61.98
2018-07-19T13:01:55.632Z,62.24
2018-07-19T13:02:55.643Z,62.56
2018-07-19T13:03:55.749Z,62.46
2018-07-19T13:04:55.679Z,62.17
2018-07-19T13:05:55.704Z,62.46
2018-07-19T13:06:55.666Z,62.63
2018-07-19T13:07:55.687Z,61.49
2018-07-19T13:08:55.727Z,62.43
2018-07-19T13:09:55.643Z,62.66
2018-07-19T13:10:55.684Z,62.27
2018-07-19T13:11:55.651Z,62.46
2018-07-19T13:12:55.674Z,62.24
2018-07-19T13:13:55.683Z,62.82
2018-07-19T13:14:55.749Z,62.75
2018-07-19T13:15:55.657Z,62.46
2018-07-19T13:16:55.676Z,61.4
2018-07-19T13:17:55.680Z,62.24
2018-07-19T13:18:55.658Z,62.66
2018-07-19T13:19:55.681Z,62.95
2018-07-19T13:20:55.703Z,62.72
2018-07-19T13:23:18.528Z,62.85
2018-07-19T13:24:14.533Z,62.46
2018-07-19T13:25:14.605Z,61.95
2018-07-19T13:26:14.638Z,62.46
2018-07-19T13:27:14.594Z,62.46